Putman, Connecticut
Current Conditions -  °F | °C
As of 11:52 PM on Tuesday 25 Nov 2014 (Local Time) from KIJD Reporting Station
Clear Clear  
Wind Chill: 39°   Ceiling: Unl
Heat Index: 39°   Visibility: 10mi
Dew Point: 33°   Wind: 0mph
Humidity: 79%   Direction: NA
Pressure: 30.13"   Gusts: NA
Location:  41.91°N, 71.8739°W
Report Text: KIJD 260452Z AUTO 00000KT 10SM CLR 04/01 A3013 RMK AO2 SLP204 T00390006 401940028
Loading
Personal Weather Stations






























Interactive Weather Map New forecast layout! Learn more

10-Day Weather Forecast

Advertisements
Track Severe Weather on mobile